createdAt,value
2022-09-28T00:01:07.454Z,98401.69
2022-09-28T00:03:35.560Z,98403.03
2022-09-28T00:06:04.886Z,98318.31
2022-09-28T00:08:32.976Z,98294.00
2022-09-28T00:11:00.956Z,98388.94
2022-09-28T00:13:29.483Z,98385.88
2022-09-28T00:16:03.833Z,98286.59
2022-09-28T00:18:32.320Z,98368.22
2022-09-28T00:21:05.773Z,98374.63
2022-09-28T00:23:34.954Z,98375.38
2022-09-28T00:26:04.087Z,98373.09
2022-09-28T00:28:32.579Z,98366.81
2022-09-28T00:31:02.194Z,98363.47
2022-09-28T00:33:30.134Z,98360.50
2022-09-28T00:35:58.827Z,98361.38
2022-09-28T00:38:29.930Z,98361.66
2022-09-28T00:40:59.745Z,98345.81
2022-09-28T00:43:28.064Z,98355.16
2022-09-28T00:46:00.576Z,98349.06
2022-09-28T00:48:33.684Z,98353.63
2022-09-28T00:51:07.992Z,98347.84
2022-09-28T00:53:39.541Z,98318.56
2022-09-28T00:56:12.958Z,98313.78
2022-09-28T00:58:45.240Z,98338.00
2022-09-28T01:01:13.618Z,98290.25
2022-09-28T01:03:45.726Z,98330.56
2022-09-28T01:06:19.484Z,98299.22
2022-09-28T01:08:51.795Z,98318.56
2022-09-28T01:11:20.556Z,98321.78
2022-09-28T01:13:50.721Z,98322.66
2022-09-28T01:16:30.693Z,98314.63
2022-09-28T01:19:18.927Z,98311.88
2022-09-28T01:21:53.766Z,98172.06
2022-09-28T01:24:39.497Z,98192.91
2022-09-28T01:27:14.732Z,98256.38
2022-09-28T01:29:53.483Z,98282.38
2022-09-28T01:32:39.333Z,98277.91
2022-09-28T01:35:11.628Z,98293.03
2022-09-28T01:37:45.198Z,98285.31
2022-09-28T01:40:15.914Z,98280.06
2022-09-28T01:42:48.701Z,98276.28
2022-09-28T01:45:22.979Z,98269.25
2022-09-28T01:47:56.701Z,98271.69
2022-09-28T01:50:29.682Z,98271.69
2022-09-28T01:53:04.038Z,98262.75
2022-09-28T01:55:35.134Z,98257.81
2022-09-28T01:58:12.780Z,98253.00
2022-09-28T02:00:45.719Z,98256.03
2022-09-28T02:03:21.823Z,98239.25
2022-09-28T02:06:00.196Z,98251.81
2022-09-28T02:08:33.201Z,98238.88
2022-09-28T02:11:07.090Z,98238.13
2022-09-28T02:13:40.807Z,98239.22
2022-09-28T02:16:15.122Z,98238.09
2022-09-28T02:18:44.937Z,98168.16
2022-09-28T02:21:24.005Z,98230.69
2022-09-28T02:23:57.370Z,98223.63
2022-09-28T02:26:31.461Z,98226.66
2022-09-28T02:29:00.967Z,98219.31
2022-09-28T02:31:29.310Z,98218.66
2022-09-28T02:33:58.814Z,98216.38
2022-09-28T02:36:27.638Z,98213.88
2022-09-28T02:38:57.254Z,98179.38
2022-09-28T02:41:40.752Z,98212.19
2022-09-28T02:44:22.940Z,98204.16
2022-09-28T02:47:00.269Z,98209.31
2022-09-28T02:49:41.383Z,98202.94
2022-09-28T02:52:34.937Z,98206.44
2022-09-28T02:55:21.257Z,98203.78
2022-09-28T02:58:04.756Z,98198.81
2022-09-28T03:00:39.181Z,98200.84
2022-09-28T03:03:19.082Z,98200.81
2022-09-28T03:06:00.506Z,98204.28
2022-09-28T03:08:38.663Z,98208.06
2022-09-28T03:11:15.820Z,98203.78
2022-09-28T03:13:48.112Z,98199.72
2022-09-28T03:16:19.338Z,98196.19
2022-09-28T03:18:50.118Z,98199.72
2022-09-28T03:21:19.651Z,98203.31
2022-09-28T03:23:48.370Z,98145.06
2022-09-28T03:26:17.998Z,98193.97
2022-09-28T03:28:46.075Z,98195.78
2022-09-28T03:31:20.837Z,98197.06
2022-09-28T03:33:48.712Z,98199.13
2022-09-28T03:36:16.613Z,98203.59
2022-09-28T03:38:44.674Z,98197.25
2022-09-28T03:41:12.555Z,98156.44
2022-09-28T03:43:43.427Z,98195.28
2022-09-28T03:46:13.949Z,98197.09
2022-09-28T03:48:48.575Z,98187.50
2022-09-28T03:51:16.758Z,98186.56
2022-09-28T03:53:44.688Z,98189.38
2022-09-28T03:56:16.166Z,98170.94
2022-09-28T03:58:44.040Z,98185.59
2022-09-28T04:01:17.692Z,98174.59
2022-09-28T04:03:49.018Z,98173.00
2022-09-28T04:06:17.430Z,98186.66
2022-09-28T04:08:45.341Z,98188.69
2022-09-28T04:11:13.200Z,98185.81
2022-09-28T04:13:41.827Z,98187.09
2022-09-28T04:16:12.664Z,98185.00
2022-09-28T04:18:44.613Z,98189.34
2022-09-28T04:21:38.594Z,98193.16
2022-09-28T04:24:12.218Z,98188.69
2022-09-28T04:26:40.077Z,98192.59
2022-09-28T04:29:15.736Z,98201.16
2022-09-28T04:31:49.880Z,98202.03
2022-09-28T04:34:21.440Z,98176.53
2022-09-28T04:36:51.540Z,98189.63
2022-09-28T04:39:20.168Z,98208.53
2022-09-28T04:41:51.310Z,98198.44
2022-09-28T04:44:19.836Z,98207.56
2022-09-28T04:46:49.083Z,98196.66
2022-09-28T04:49:31.910Z,98213.09
2022-09-28T04:52:08.332Z,98205.75
2022-09-28T04:54:36.464Z,98208.16
2022-09-28T04:57:06.045Z,98210.44
2022-09-28T04:59:33.971Z,98195.00
2022-09-28T05:02:01.919Z,98211.72
2022-09-28T05:04:48.198Z,98207.44
2022-09-28T05:07:39.459Z,98217.50
2022-09-28T05:10:08.440Z,98220.78
2022-09-28T05:12:38.760Z,98221.41
2022-09-28T05:15:07.484Z,98223.78
2022-09-28T05:17:35.391Z,98225.31
2022-09-28T05:20:06.847Z,98221.34
2022-09-28T05:22:35.094Z,98224.78
2022-09-28T05:25:04.901Z,98219.41
2022-09-28T05:27:42.417Z,98218.66
2022-09-28T05:30:25.561Z,98215.34
2022-09-28T05:33:13.383Z,98112.84
2022-09-28T05:35:53.330Z,98218.44
2022-09-28T05:38:22.394Z,98211.78
2022-09-28T05:40:51.623Z,98191.56
2022-09-28T05:43:19.615Z,98223.88
2022-09-28T05:45:51.613Z,98211.88
2022-09-28T05:48:23.330Z,98202.16
2022-09-28T05:50:52.250Z,98190.50
2022-09-28T05:53:20.504Z,98156.13
2022-09-28T05:55:48.859Z,98213.50
2022-09-28T05:58:18.445Z,98052.28
2022-09-28T06:00:46.410Z,98221.88
2022-09-28T06:03:15.702Z,98221.91
2022-09-28T06:05:43.502Z,98124.72
2022-09-28T06:08:11.788Z,98235.56
2022-09-28T06:10:44.142Z,98231.56
2022-09-28T06:13:12.373Z,98227.22
2022-09-28T06:15:44.150Z,98199.28
2022-09-28T06:18:15.261Z,98213.88
2022-09-28T06:21:10.893Z,98159.19
2022-09-28T06:23:48.150Z,98233.13
2022-09-28T06:26:18.727Z,98234.94
2022-09-28T06:28:47.292Z,98196.03
2022-09-28T06:31:17.173Z,98207.50
2022-09-28T06:33:49.711Z,98222.47
2022-09-28T06:36:19.544Z,98255.13
2022-09-28T06:38:47.570Z,98231.59
2022-09-28T06:41:16.166Z,98258.25
2022-09-28T06:43:46.215Z,98255.72
2022-09-28T06:46:14.367Z,98260.00
2022-09-28T06:48:50.040Z,98214.84
2022-09-28T06:51:37.681Z,98265.06
2022-09-28T06:54:19.449Z,98263.97
2022-09-28T06:56:57.639Z,98194.50
2022-09-28T06:59:25.757Z,98269.47
2022-09-28T07:01:55.054Z,98256.88
2022-09-28T07:04:47.080Z,98262.81
2022-09-28T07:07:33.718Z,98270.78
2022-09-28T07:10:24.221Z,98142.16
2022-09-28T07:13:47.865Z,98283.97
2022-09-28T07:16:13.376Z,98194.63
2022-09-28T07:18:42.295Z,98281.22
2022-09-28T07:21:24.762Z,98284.91
2022-09-28T07:23:56.574Z,98289.84
2022-09-28T07:26:25.622Z,98295.41
2022-09-28T07:29:07.035Z,98289.53
2022-09-28T07:32:01.365Z,98298.41
2022-09-28T07:34:44.011Z,98214.09
2022-09-28T07:37:23.055Z,98299.91
2022-09-28T07:40:08.645Z,98272.56
2022-09-28T07:42:39.181Z,98301.34
2022-09-28T07:45:08.965Z,98292.94
2022-09-28T07:47:37.159Z,98292.63
2022-09-28T07:50:34.150Z,98300.78
2022-09-28T07:53:13.189Z,98307.75
2022-09-28T07:56:07.067Z,98308.19
2022-09-28T07:58:41.939Z,98248.19
2022-09-28T08:01:28.093Z,98310.97
2022-09-28T08:03:56.292Z,98314.34
2022-09-28T08:06:24.814Z,98323.44
2022-09-28T08:08:56.373Z,98320.47
2022-09-28T08:11:32.226Z,98312.34
2022-09-28T08:14:13.692Z,98315.97
2022-09-28T08:17:10.837Z,98321.47
2022-09-28T08:19:58.227Z,98321.16
2022-09-28T08:22:26.266Z,98314.28
2022-09-28T08:24:58.369Z,98335.28
2022-09-28T08:27:26.333Z,98326.50
2022-09-28T08:29:55.054Z,98298.75
2022-09-28T08:32:47.643Z,98347.16
2022-09-28T08:35:35.849Z,98349.34
2022-09-28T08:38:15.263Z,98345.63
2022-09-28T08:41:20.348Z,98318.94
2022-09-28T08:44:26.242Z,98349.81
2022-09-28T08:47:06.196Z,98351.13
2022-09-28T08:49:51.613Z,98352.81
2022-09-28T08:52:27.082Z,98356.16
2022-09-28T08:55:08.657Z,98335.06
2022-09-28T08:57:47.984Z,98370.53
2022-09-28T09:00:22.546Z,98368.09
2022-09-28T09:02:51.021Z,98372.75
2022-09-28T09:05:25.614Z,98368.88
2022-09-28T09:08:25.194Z,98379.47
2022-09-28T09:10:58.901Z,98373.44
2022-09-28T09:13:57.353Z,98362.31
2022-09-28T09:16:36.826Z,98382.91
2022-09-28T09:19:36.229Z,98351.63
2022-09-28T09:22:40.773Z,98355.03
2022-09-28T09:25:19.595Z,98385.66
2022-09-28T09:28:08.543Z,98387.59
2022-09-28T09:30:50.211Z,98393.38
2022-09-28T09:33:41.942Z,98398.72
2022-09-28T09:37:03.081Z,98395.28
2022-09-28T09:40:07.440Z,98400.31
2022-09-28T09:43:29.387Z,98387.50
2022-09-28T09:46:29.731Z,98398.94
2022-09-28T09:49:20.771Z,98395.84
2022-09-28T09:51:57.660Z,98404.53
2022-09-28T09:54:31.625Z,98404.75
2022-09-28T09:57:04.714Z,98414.72
2022-09-28T09:59:48.412Z,98419.00
2022-09-28T10:02:39.769Z,98405.38
2022-09-28T10:05:23.321Z,98418.88
2022-09-28T10:07:56.020Z,98416.94
2022-09-28T10:10:29.475Z,98415.31
2022-09-28T10:13:14.705Z,98424.69
2022-09-28T10:15:45.843Z,98421.78
2022-09-28T10:18:22.378Z,98369.69
2022-09-28T10:21:14.952Z,98422.31
2022-09-28T10:23:59.179Z,98415.56
2022-09-28T10:26:35.768Z,98421.34
2022-09-28T10:29:09.449Z,98419.84
2022-09-28T10:31:40.823Z,98425.00
2022-09-28T10:34:17.465Z,98416.00
2022-09-28T10:36:50.809Z,98437.47
2022-09-28T10:39:29.247Z,98435.59
2022-09-28T10:42:00.123Z,98434.53
2022-09-28T10:44:33.652Z,98439.03
2022-09-28T10:47:10.092Z,98376.47
2022-09-28T10:49:47.010Z,98436.00
2022-09-28T10:52:32.820Z,98132.28
2022-09-28T10:55:01.612Z,98363.31
2022-09-28T10:57:33.911Z,98363.50
2022-09-28T11:00:32.020Z,98450.59
2022-09-28T11:03:21.496Z,98414.69
2022-09-28T11:06:03.295Z,98453.66
2022-09-28T11:08:35.327Z,98243.88
2022-09-28T11:11:07.045Z,98443.38
2022-09-28T11:13:42.074Z,98381.59
2022-09-28T11:16:23.583Z,98291.09
2022-09-28T11:18:52.007Z,98430.13
2022-09-28T11:21:26.281Z,98457.88
2022-09-28T11:24:08.264Z,98424.91
2022-09-28T11:26:44.527Z,98417.41
2022-09-28T11:29:41.885Z,98460.16
2022-09-28T11:32:40.268Z,98445.88
2022-09-28T11:35:23.410Z,98460.69
2022-09-28T11:38:16.493Z,98466.06
2022-09-28T11:41:33.175Z,98468.19
2022-09-28T11:44:32.513Z,98473.13
2022-09-28T11:47:45.788Z,98464.31
2022-09-28T11:50:24.414Z,98477.41
2022-09-28T11:53:01.056Z,98471.94
2022-09-28T11:55:36.289Z,98465.63
2022-09-28T11:58:12.283Z,98479.97
2022-09-28T12:00:47.009Z,98484.03
2022-09-28T12:03:19.542Z,98483.63
2022-09-28T12:05:52.671Z,98395.50
2022-09-28T12:08:27.420Z,98397.88
2022-09-28T12:11:22.984Z,98491.88
2022-09-28T12:14:18.001Z,98312.22
2022-09-28T12:17:05.989Z,98491.53
2022-09-28T12:19:39.640Z,98399.06
2022-09-28T12:22:17.274Z,98476.53
2022-09-28T12:24:47.487Z,98471.94
2022-09-28T12:27:24.635Z,98469.25
2022-09-28T12:29:59.941Z,98481.56
2022-09-28T12:32:35.642Z,98470.13
2022-09-28T12:35:04.439Z,98332.34
2022-09-28T12:37:46.127Z,98480.28
2022-09-28T12:40:30.116Z,98482.34
2022-09-28T12:43:12.975Z,98451.91
2022-09-28T12:46:14.190Z,98490.03
2022-09-28T12:50:20.102Z,98463.22
2022-09-28T12:52:00.454Z,98490.44
2022-09-28T12:54:44.097Z,98489.16
2022-09-28T12:57:31.951Z,98490.41
2022-09-28T13:00:06.273Z,98395.94
2022-09-28T13:03:07.020Z,98495.88
2022-09-28T13:06:24.193Z,98449.78
2022-09-28T13:09:08.923Z,98505.25
2022-09-28T13:11:44.959Z,98504.59
2022-09-28T13:14:37.290Z,98357.59
2022-09-28T13:17:18.765Z,98309.41
2022-09-28T13:19:55.474Z,98483.59
2022-09-28T13:22:34.112Z,98503.31
2022-09-28T13:25:09.999Z,98482.97
2022-09-28T13:27:42.378Z,98496.28
2022-09-28T13:30:15.272Z,98495.22
2022-09-28T13:32:46.795Z,98495.97
2022-09-28T13:35:16.217Z,98504.44
2022-09-28T13:37:44.139Z,98497.22
2022-09-28T13:40:12.407Z,98501.75
2022-09-28T13:43:07.649Z,98506.94
2022-09-28T13:45:49.988Z,98503.94
2022-09-28T13:48:22.864Z,98505.41
2022-09-28T13:51:06.351Z,98486.50
2022-09-28T13:53:44.795Z,98353.94
2022-09-28T13:56:27.716Z,98467.03
2022-09-28T13:59:01.170Z,98485.91
2022-09-28T14:01:33.951Z,98394.03
2022-09-28T14:04:17.731Z,98481.09
2022-09-28T14:06:55.794Z,98516.78
2022-09-28T14:09:27.937Z,98513.84
2022-09-28T14:11:58.266Z,98518.38
2022-09-28T14:14:27.218Z,98508.81
2022-09-28T14:17:16.561Z,98513.47
2022-09-28T14:19:48.245Z,98336.91
2022-09-28T14:22:26.139Z,98501.25
2022-09-28T14:25:07.600Z,98506.44
2022-09-28T14:27:48.593Z,98491.22
2022-09-28T14:30:23.726Z,98506.22
2022-09-28T14:32:57.726Z,98532.16
2022-09-28T14:35:33.093Z,98478.75
2022-09-28T14:38:24.291Z,98530.44
2022-09-28T14:41:10.566Z,98524.59
2022-09-28T14:43:58.870Z,98520.06
2022-09-28T14:46:46.811Z,98507.31
2022-09-28T14:49:50.178Z,98533.91
2022-09-28T14:52:41.638Z,98524.25
2022-09-28T14:55:15.197Z,98537.25
2022-09-28T14:57:43.975Z,98526.28
2022-09-28T15:00:20.260Z,98541.31
2022-09-28T15:02:52.551Z,98463.69
2022-09-28T15:05:25.260Z,98487.53
2022-09-28T15:07:56.116Z,98531.38
2022-09-28T15:10:31.251Z,98518.41
2022-09-28T15:13:01.887Z,98543.31
2022-09-28T15:15:34.999Z,98541.91
2022-09-28T15:18:28.857Z,98534.44
2022-09-28T15:20:57.154Z,98549.56
2022-09-28T15:23:33.958Z,98550.53
2022-09-28T15:26:02.823Z,98547.53
2022-09-28T15:28:30.901Z,98551.06
2022-09-28T15:31:03.584Z,98454.69
2022-09-28T15:33:51.129Z,98527.31
2022-09-28T15:36:24.810Z,98508.25
2022-09-28T15:39:01.347Z,98548.38
2022-09-28T15:41:31.262Z,98544.75
2022-09-28T15:44:24.126Z,98544.34
2022-09-28T15:47:13.595Z,98451.06
2022-09-28T15:49:45.992Z,98568.16
2022-09-28T15:52:36.374Z,98554.19
2022-09-28T15:55:13.959Z,98573.50
2022-09-28T15:57:42.033Z,98575.44
2022-09-28T16:00:26.561Z,98473.44
2022-09-28T16:03:20.413Z,98576.94
2022-09-28T16:05:51.191Z,98550.06
2022-09-28T16:08:24.702Z,98508.34
2022-09-28T16:11:08.086Z,98581.41
2022-09-28T16:13:37.091Z,98586.75
2022-09-28T16:16:05.161Z,98586.41
2022-09-28T16:18:36.928Z,98589.63
2022-09-28T16:21:25.432Z,98566.56
2022-09-28T16:23:56.126Z,98579.44
2022-09-28T16:26:33.007Z,98230.19
2022-09-28T16:29:02.336Z,98578.22
2022-09-28T16:31:35.054Z,98476.75
2022-09-28T16:34:17.639Z,98558.72
2022-09-28T16:36:47.834Z,98575.25
2022-09-28T16:39:17.408Z,98561.56
2022-09-28T16:41:49.573Z,98574.00
2022-09-28T16:44:24.736Z,98596.22
2022-09-28T16:46:55.191Z,98571.53
2022-09-28T16:49:25.370Z,98603.69
2022-09-28T16:51:53.599Z,98603.44
2022-09-28T16:54:41.046Z,98607.00
2022-09-28T16:57:13.280Z,98614.50
2022-09-28T16:59:41.141Z,98616.78
2022-09-28T17:02:35.365Z,98601.44
2022-09-28T17:05:07.040Z,98607.00
2022-09-28T17:07:35.326Z,98615.38
2022-09-28T17:10:03.663Z,98484.91
2022-09-28T17:12:32.963Z,98460.84
2022-09-28T17:15:01.197Z,98609.97
2022-09-28T17:17:31.570Z,98492.00
2022-09-28T17:19:59.421Z,98628.69
2022-09-28T17:22:27.408Z,98629.38
2022-09-28T17:24:55.270Z,98635.31
2022-09-28T17:27:23.165Z,98634.81
2022-09-28T17:29:52.519Z,98634.25
2022-09-28T17:32:20.683Z,98637.13
2022-09-28T17:35:00.860Z,98638.63
2022-09-28T17:37:36.246Z,98649.53
2022-09-28T17:40:13.990Z,98594.63
2022-09-28T17:42:42.009Z,98596.72
2022-09-28T17:45:11.500Z,98656.41
2022-09-28T17:47:39.608Z,98645.72
2022-09-28T17:50:21.156Z,98633.00
2022-09-28T17:52:52.018Z,98665.88
2022-09-28T17:55:21.596Z,98659.47
2022-09-28T17:57:49.864Z,98447.66
2022-09-28T18:00:19.604Z,98639.78
2022-09-28T18:02:47.804Z,98663.09
2022-09-28T18:05:15.980Z,98642.66
2022-09-28T18:07:47.586Z,98658.22
2022-09-28T18:10:18.153Z,98618.94
2022-09-28T18:12:46.739Z,98661.16
2022-09-28T18:15:15.144Z,98667.19
2022-09-28T18:17:45.086Z,98585.31
2022-09-28T18:20:14.412Z,98675.63
2022-09-28T18:22:42.507Z,98668.66
2022-09-28T18:25:11.225Z,98663.88
2022-09-28T18:27:39.249Z,98670.63
2022-09-28T18:30:08.547Z,98675.50
2022-09-28T18:32:37.511Z,98662.53
2022-09-28T18:35:11.199Z,98654.56
2022-09-28T18:37:40.947Z,98647.91
2022-09-28T18:40:11.056Z,98667.88
2022-09-28T18:42:39.880Z,98684.88
2022-09-28T18:45:11.224Z,98665.28
2022-09-28T18:47:39.362Z,98619.53
2022-09-28T18:50:11.539Z,98672.06
2022-09-28T18:52:40.574Z,98698.72
2022-09-28T18:55:09.071Z,98700.75
2022-09-28T18:57:37.393Z,98681.03
2022-09-28T19:00:07.989Z,98699.47
2022-09-28T19:02:36.352Z,98710.19
2022-09-28T19:05:06.558Z,98710.19
2022-09-28T19:07:36.937Z,98685.81
2022-09-28T19:10:06.411Z,98699.38
2022-09-28T19:12:34.660Z,98680.06
2022-09-28T19:15:02.547Z,98706.25
2022-09-28T19:17:30.414Z,98698.59
2022-09-28T19:19:58.878Z,98694.38
2022-09-28T19:22:26.945Z,98709.09
2022-09-28T19:24:56.804Z,98682.34
2022-09-28T19:27:24.754Z,98698.50
2022-09-28T19:29:52.741Z,98692.97
2022-09-28T19:32:20.651Z,98708.28
2022-09-28T19:34:48.841Z,98688.78
2022-09-28T19:37:17.375Z,98711.44
2022-09-28T19:39:45.906Z,98715.91
2022-09-28T19:42:15.454Z,98691.25
2022-09-28T19:44:46.004Z,98720.22
2022-09-28T19:47:14.378Z,98710.44
2022-09-28T19:49:42.765Z,98713.69
2022-09-28T19:52:16.637Z,98713.50
2022-09-28T19:54:48.374Z,98712.94
2022-09-28T19:57:19.621Z,98721.81
2022-09-28T19:59:52.044Z,98707.34
2022-09-28T20:02:21.157Z,98719.59
2022-09-28T20:04:49.603Z,98678.47
2022-09-28T20:07:17.637Z,98725.72
2022-09-28T20:09:45.559Z,98724.75
2022-09-28T20:12:13.624Z,98723.97
2022-09-28T20:14:42.999Z,98719.41
2022-09-28T20:17:11.186Z,98730.09
2022-09-28T20:19:39.365Z,98716.78
2022-09-28T20:22:07.615Z,98726.25
2022-09-28T20:24:35.554Z,98699.00
2022-09-28T20:27:03.552Z,98741.84
2022-09-28T20:29:33.474Z,98743.91
2022-09-28T20:32:04.097Z,98737.97
2022-09-28T20:34:33.490Z,98747.63
2022-09-28T20:37:01.550Z,98748.66
2022-09-28T20:39:29.550Z,98681.56
2022-09-28T20:41:57.649Z,98650.84
2022-09-28T20:44:25.697Z,98719.13
2022-09-28T20:46:53.906Z,98734.72
2022-09-28T20:49:23.139Z,98720.66
2022-09-28T20:51:51.179Z,98711.13
2022-09-28T20:54:19.261Z,98740.38
2022-09-28T20:56:48.300Z,98750.13
2022-09-28T20:59:16.440Z,98748.22
2022-09-28T21:01:44.691Z,98664.47
2022-09-28T21:04:12.973Z,98721.25
2022-09-28T21:06:43.291Z,98743.66
2022-09-28T21:09:12.520Z,98754.34
2022-09-28T21:11:41.874Z,98753.75
2022-09-28T21:14:10.788Z,98738.16
2022-09-28T21:16:39.673Z,98750.94
2022-09-28T21:19:07.642Z,98645.75
2022-09-28T21:21:35.704Z,98745.06
2022-09-28T21:24:05.407Z,98753.34
2022-09-28T21:26:35.126Z,98757.22
2022-09-28T21:29:05.083Z,98756.16
2022-09-28T21:31:38.951Z,98764.84
2022-09-28T21:34:07.602Z,98759.72
2022-09-28T21:36:35.594Z,98767.56
2022-09-28T21:39:08.322Z,98760.53
2022-09-28T21:41:38.312Z,98760.19
2022-09-28T21:44:06.597Z,98772.00
2022-09-28T21:46:34.802Z,98769.00
2022-09-28T21:49:03.104Z,98759.41
2022-09-28T21:51:31.829Z,98759.91
2022-09-28T21:54:00.033Z,98771.91
2022-09-28T21:56:29.477Z,98766.22
2022-09-28T21:58:57.441Z,98673.34
2022-09-28T22:01:26.629Z,98783.19
2022-09-28T22:03:56.765Z,98782.66
2022-09-28T22:06:28.273Z,98786.97
2022-09-28T22:08:56.533Z,98788.50
2022-09-28T22:11:25.642Z,98770.88
2022-09-28T22:13:56.438Z,98778.59
2022-09-28T22:16:26.716Z,98754.47
2022-09-28T22:18:54.617Z,98780.94
2022-09-28T22:21:24.401Z,98786.09
2022-09-28T22:23:52.887Z,98735.25
2022-09-28T22:26:22.674Z,98781.34
2022-09-28T22:28:52.468Z,98788.34
2022-09-28T22:31:23.770Z,98792.72
2022-09-28T22:33:52.185Z,98779.34
2022-09-28T22:36:20.137Z,98761.28
2022-09-28T22:38:49.119Z,98724.50
2022-09-28T22:41:19.521Z,98716.88
2022-09-28T22:43:48.487Z,98796.84
2022-09-28T22:46:18.326Z,98669.19
2022-09-28T22:48:49.838Z,98786.50
2022-09-28T22:51:18.037Z,98807.06
2022-09-28T22:53:46.534Z,98805.63
2022-09-28T22:56:18.737Z,98777.69
2022-09-28T22:58:47.677Z,98777.75
2022-09-28T23:01:18.706Z,98807.41
2022-09-28T23:03:49.582Z,98805.88
2022-09-28T23:06:19.557Z,98802.09
2022-09-28T23:08:48.322Z,98786.66
2022-09-28T23:11:16.605Z,98808.56
2022-09-28T23:13:44.592Z,98802.09
2022-09-28T23:16:14.847Z,98807.06
2022-09-28T23:18:43.627Z,98785.44
2022-09-28T23:21:15.323Z,98789.97
2022-09-28T23:23:43.658Z,98799.75
2022-09-28T23:26:12.785Z,98748.69
2022-09-28T23:28:40.825Z,98726.81
2022-09-28T23:31:09.573Z,98800.13
2022-09-28T23:33:37.650Z,98802.63
2022-09-28T23:36:05.914Z,98805.56
2022-09-28T23:38:35.925Z,98755.38
2022-09-28T23:41:03.869Z,98798.53
2022-09-28T23:43:31.822Z,98791.16
2022-09-28T23:45:59.793Z,98805.47
2022-09-28T23:48:27.706Z,98823.41
2022-09-28T23:50:55.642Z,98806.69
2022-09-28T23:53:23.527Z,98810.50
2022-09-28T23:55:52.791Z,98769.34
2022-09-28T23:58:20.908Z,98805.97
